createdAt,value
2023-05-11T09:03:31.845Z,39.19
2023-05-11T09:05:59.096Z,40.90
2023-05-11T09:08:27.957Z,37.47
2023-05-11T09:10:55.407Z,37.06
2023-05-11T09:13:24.736Z,35.92
2023-05-11T09:15:52.364Z,35.90
2023-05-11T09:18:19.473Z,34.96
2023-05-11T09:20:46.691Z,35.43
2023-05-11T09:23:18.687Z,35.16
2023-05-11T09:25:45.453Z,34.70
2023-05-11T09:28:15.797Z,33.83
2023-05-11T09:30:42.875Z,34.31
2023-05-11T09:33:09.855Z,32.91
2023-05-11T09:35:37.681Z,32.56
2023-05-11T09:38:12.263Z,31.15
2023-05-11T09:40:40.746Z,33.47
2023-05-11T09:43:18.459Z,33.19
2023-05-11T09:45:50.197Z,31.85
2023-05-11T09:48:17.147Z,31.01
2023-05-11T09:50:44.096Z,30.59
2023-05-11T09:53:11.296Z,30.92
2023-05-11T09:55:38.075Z,30.42
2023-05-11T09:58:04.982Z,31.69
2023-05-11T10:00:31.770Z,31.63
2023-05-11T10:03:06.470Z,30.37
2023-05-11T10:05:35.404Z,30.36
2023-05-11T10:08:04.196Z,30.20
2023-05-11T10:10:32.829Z,29.97
2023-05-11T10:13:03.700Z,29.55
2023-05-11T10:15:32.914Z,30.28
2023-05-11T10:18:02.688Z,29.79
2023-05-11T10:20:29.707Z,28.73
2023-05-11T10:22:56.683Z,29.05
2023-05-11T10:25:25.010Z,28.35
2023-05-11T10:27:52.403Z,28.39
2023-05-11T10:30:19.776Z,28.63
2023-05-11T10:32:49.611Z,28.26
2023-05-11T10:35:16.746Z,29.20
2023-05-11T10:37:43.870Z,27.89
2023-05-11T10:40:11.590Z,28.55
2023-05-11T10:43:15.162Z,27.33
2023-05-11T10:46:06.740Z,27.25
2023-05-11T10:48:40.389Z,27.73
2023-05-11T10:51:28.889Z,26.71
2023-05-11T10:54:02.818Z,26.21
2023-05-11T10:56:50.221Z,25.83
2023-05-11T10:59:52.491Z,26.22
2023-05-11T11:02:19.511Z,27.87
2023-05-11T11:04:51.928Z,27.46
2023-05-11T11:07:19.983Z,27.37
2023-05-11T11:10:05.383Z,27.20
2023-05-11T11:12:35.125Z,28.36
2023-05-11T11:15:06.678Z,27.81
2023-05-11T11:17:35.686Z,28.43
2023-05-11T11:20:10.369Z,27.87
2023-05-11T11:22:41.745Z,26.79
2023-05-11T11:25:10.087Z,28.38
2023-05-11T11:27:46.227Z,28.13
2023-05-11T11:30:21.272Z,29.78
2023-05-11T11:32:49.805Z,28.15
2023-05-11T11:35:41.998Z,28.50
2023-05-11T11:38:16.141Z,28.56
2023-05-11T11:40:53.275Z,28.03
2023-05-11T11:43:23.849Z,27.34
2023-05-11T11:46:02.346Z,28.94
2023-05-11T11:48:36.633Z,29.86
2023-05-11T11:51:11.365Z,29.66
2023-05-11T11:53:38.323Z,30.05
2023-05-11T11:56:07.662Z,29.80
2023-05-11T11:58:40.341Z,30.13
2023-05-11T12:01:07.838Z,30.24
2023-05-11T12:03:38.941Z,30.18
2023-05-11T12:06:08.228Z,30.41
2023-05-11T12:08:36.017Z,30.28
2023-05-11T12:11:05.459Z,29.39
2023-05-11T12:13:35.969Z,29.06
2023-05-11T12:16:09.832Z,28.53
2023-05-11T12:18:36.872Z,28.75
2023-05-11T12:21:03.884Z,27.77
2023-05-11T12:23:32.488Z,26.77
2023-05-11T12:26:06.586Z,26.77
2023-05-11T12:28:33.956Z,27.57
2023-05-11T12:31:01.060Z,26.62
2023-05-11T12:33:28.444Z,26.53
2023-05-11T12:35:57.167Z,25.58
2023-05-11T12:38:23.926Z,25.92
2023-05-11T12:40:52.895Z,26.63
2023-05-11T12:43:21.107Z,26.28
2023-05-11T12:45:48.180Z,26.51
2023-05-11T12:48:15.894Z,26.87
2023-05-11T12:50:44.869Z,26.38
2023-05-11T12:53:16.421Z,27.51
2023-05-11T12:55:43.650Z,26.84
2023-05-11T12:58:14.962Z,26.80
2023-05-11T13:00:55.938Z,27.29
2023-05-11T13:03:32.128Z,28.00
2023-05-11T13:06:05.778Z,27.00
2023-05-11T13:08:32.666Z,27.50
2023-05-11T13:11:25.970Z,27.16
2023-05-11T13:13:53.779Z,27.41
2023-05-11T13:16:32.175Z,29.87
2023-05-11T13:19:06.489Z,27.49
2023-05-11T13:21:33.858Z,28.13
2023-05-11T13:24:04.174Z,28.90
2023-05-11T13:26:31.597Z,27.43
2023-05-11T13:29:08.683Z,28.48
2023-05-11T13:31:43.397Z,27.77
2023-05-11T13:34:10.144Z,28.01
2023-05-11T13:36:36.906Z,27.98
2023-05-11T13:39:03.757Z,28.08
2023-05-11T13:41:30.606Z,28.62
2023-05-11T13:43:57.400Z,30.77
2023-05-11T13:46:24.187Z,28.38
2023-05-11T13:48:51.161Z,29.13
2023-05-11T13:51:17.928Z,29.24
2023-05-11T13:53:44.803Z,29.58
2023-05-11T13:56:11.743Z,28.21
2023-05-11T13:58:38.479Z,28.66
2023-05-11T14:01:08.382Z,28.69
2023-05-11T14:03:35.608Z,29.20
2023-05-11T14:06:03.299Z,29.56
2023-05-11T14:08:30.204Z,30.53
2023-05-11T14:10:57.538Z,29.22
2023-05-11T14:13:25.576Z,28.52
2023-05-11T14:15:52.464Z,28.99
2023-05-11T14:18:19.442Z,29.23
2023-05-11T14:20:46.339Z,29.88
2023-05-11T14:23:13.095Z,30.58
2023-05-11T14:25:39.837Z,29.11
2023-05-11T14:28:07.161Z,28.74
2023-05-11T14:30:34.114Z,28.75
2023-05-11T14:33:02.025Z,29.00
2023-05-11T14:35:32.028Z,29.52
2023-05-11T14:37:58.810Z,29.06
2023-05-11T14:40:25.581Z,30.20
2023-05-11T14:42:52.773Z,29.85
2023-05-11T14:45:19.786Z,30.28
2023-05-11T14:47:47.115Z,30.45
2023-05-11T14:50:13.884Z,30.00
2023-05-11T14:52:41.044Z,28.80
2023-05-11T14:55:08.396Z,30.08
2023-05-11T14:57:35.497Z,30.26
2023-05-11T15:00:02.405Z,30.01
2023-05-11T15:02:29.354Z,30.59
2023-05-11T15:04:56.778Z,29.65
2023-05-11T15:07:23.705Z,29.49
2023-05-11T15:09:51.037Z,29.31
2023-05-11T15:12:18.269Z,30.29
2023-05-11T15:14:45.010Z,29.27
2023-05-11T15:17:11.848Z,29.60
2023-05-11T15:19:38.776Z,29.77
2023-05-11T15:22:05.899Z,29.77
2023-05-11T15:24:34.134Z,29.50
2023-05-11T15:27:01.189Z,29.66
2023-05-11T15:29:28.018Z,28.89
2023-05-11T15:31:54.826Z,29.61
2023-05-11T15:34:21.802Z,30.19
2023-05-11T15:36:50.027Z,29.74
2023-05-11T15:39:17.742Z,30.13
2023-05-11T15:41:44.953Z,29.43
2023-05-11T15:44:11.656Z,29.80
2023-05-11T15:46:39.163Z,29.88
2023-05-11T15:49:06.544Z,30.48
2023-05-11T15:51:33.535Z,31.37
2023-05-11T15:54:00.502Z,31.32
2023-05-11T15:56:27.656Z,30.86
2023-05-11T15:58:54.399Z,31.13
2023-05-11T16:01:21.373Z,31.62
2023-05-11T16:03:48.270Z,31.99
2023-05-11T16:06:15.093Z,31.53
2023-05-11T16:08:41.874Z,33.03
2023-05-11T16:11:49.312Z,32.62
2023-05-11T16:14:15.972Z,32.44
2023-05-11T16:16:42.755Z,32.51
2023-05-11T16:19:09.591Z,32.39
2023-05-11T16:21:36.342Z,32.73
2023-05-11T16:24:03.128Z,32.33
2023-05-11T16:26:32.037Z,31.76
2023-05-11T16:28:58.758Z,32.18
2023-05-11T16:31:25.639Z,32.31
2023-05-11T16:33:52.300Z,32.25
2023-05-11T16:36:19.055Z,32.62
2023-05-11T16:38:45.818Z,32.21
2023-05-11T16:41:12.491Z,32.96
2023-05-11T16:43:42.032Z,32.13
2023-05-11T16:46:09.336Z,32.52
2023-05-11T16:48:36.124Z,32.51
2023-05-11T16:51:04.183Z,32.67
2023-05-11T16:53:31.987Z,31.74
2023-05-11T16:55:58.696Z,31.57
2023-05-11T16:58:25.611Z,31.46
2023-05-11T17:00:52.691Z,31.72
2023-05-11T17:03:19.550Z,31.55
2023-05-11T17:05:46.750Z,31.73
2023-05-11T17:08:13.492Z,31.89
2023-05-11T17:10:40.548Z,31.48
2023-05-11T17:13:07.672Z,32.07
2023-05-11T17:15:34.444Z,32.48
2023-05-11T17:18:01.268Z,31.77
2023-05-11T17:20:28.072Z,31.90
2023-05-11T17:22:54.740Z,32.32
2023-05-11T17:25:22.531Z,32.41
2023-05-11T17:27:49.454Z,31.90
2023-05-11T17:30:16.549Z,32.38
2023-05-11T17:32:43.713Z,32.06
2023-05-11T17:35:10.603Z,32.24
2023-05-11T17:37:37.358Z,32.25
2023-05-11T17:40:05.377Z,33.78
2023-05-11T17:42:32.380Z,32.34
2023-05-11T17:44:59.098Z,32.42
2023-05-11T17:47:26.343Z,32.45
2023-05-11T17:49:53.062Z,32.18
2023-05-11T17:52:19.768Z,32.36
2023-05-11T17:54:46.504Z,32.41
2023-05-11T17:57:13.423Z,32.85
2023-05-11T17:59:40.152Z,32.72
2023-05-11T18:02:07.686Z,33.67
2023-05-11T18:04:34.383Z,34.39
2023-05-11T18:07:01.087Z,33.40
2023-05-11T18:09:27.795Z,32.85
2023-05-11T18:11:54.562Z,34.39
2023-05-11T18:14:21.280Z,35.43
2023-05-11T18:16:49.476Z,35.49
2023-05-11T18:19:16.195Z,32.74
2023-05-11T18:21:43.070Z,33.53
2023-05-11T18:24:09.967Z,34.53
2023-05-11T18:26:36.926Z,34.12
2023-05-11T18:29:03.661Z,36.73
2023-05-11T18:31:31.182Z,34.33
2023-05-11T18:33:57.871Z,35.57
2023-05-11T18:36:24.573Z,36.64
2023-05-11T18:38:52.301Z,34.19
2023-05-11T18:41:18.992Z,35.65
2023-05-11T18:43:45.739Z,35.25
2023-05-11T18:46:12.402Z,34.37
2023-05-11T18:48:39.208Z,36.65
2023-05-11T18:51:06.088Z,34.83
2023-05-11T18:53:33.536Z,36.14
2023-05-11T18:56:00.212Z,37.02
2023-05-11T18:58:27.175Z,35.45
2023-05-11T19:00:53.951Z,35.25
2023-05-11T19:03:22.332Z,35.94
2023-05-11T19:05:49.691Z,37.21
2023-05-11T19:08:16.822Z,36.55
2023-05-11T19:10:45.533Z,36.94
2023-05-11T19:13:13.294Z,38.77
2023-05-11T19:15:40.438Z,37.12
2023-05-11T19:18:07.226Z,36.64
2023-05-11T19:20:34.846Z,36.71
2023-05-11T19:23:01.868Z,36.31
2023-05-11T19:25:28.657Z,35.81
2023-05-11T19:27:57.262Z,37.26
2023-05-11T19:30:24.882Z,38.12
2023-05-11T19:32:51.561Z,37.10
2023-05-11T19:35:19.536Z,38.07
2023-05-11T19:37:49.114Z,38.59
2023-05-11T19:40:44.660Z,37.78
2023-05-11T19:43:06.955Z,38.56
2023-05-11T19:45:34.206Z,37.82
2023-05-11T19:48:01.046Z,38.90
2023-05-11T19:50:28.799Z,39.25
2023-05-11T19:52:55.472Z,38.01
2023-05-11T19:55:22.309Z,40.41
2023-05-11T19:57:49.187Z,37.74
2023-05-11T20:00:18.557Z,39.00
2023-05-11T20:02:46.169Z,38.75
2023-05-11T20:05:13.025Z,38.53
2023-05-11T20:07:39.722Z,38.39
2023-05-11T20:10:06.903Z,38.34
2023-05-11T20:12:33.581Z,38.08
